createdAt,value
2019-06-01T00:00:11.336Z,19.70
2019-06-01T00:01:09.129Z,19.70
2019-06-01T00:02:10.482Z,19.70
2019-06-01T00:03:11.558Z,19.70
2019-06-01T00:04:12.633Z,19.70
2019-06-01T00:05:13.777Z,19.70
2019-06-01T00:06:15.079Z,19.70
2019-06-01T00:07:16.096Z,19.70
2019-06-01T00:08:17.127Z,19.70
2019-06-01T00:09:18.726Z,19.70
2019-06-01T00:10:19.903Z,19.80
2019-06-01T00:11:20.935Z,19.70
2019-06-01T00:12:22.160Z,19.70
2019-06-01T00:13:23.505Z,19.70
2019-06-01T00:14:24.547Z,19.70
2019-06-01T00:15:25.624Z,19.70
2019-06-01T00:16:26.650Z,19.70
2019-06-01T00:17:27.701Z,19.60
2019-06-01T00:18:28.728Z,19.70
2019-06-01T00:19:29.755Z,19.70
2019-06-01T00:20:30.814Z,19.60
2019-06-01T00:21:31.811Z,19.60
2019-06-01T00:22:32.832Z,19.70
2019-06-01T00:23:33.862Z,19.70
2019-06-01T00:24:34.889Z,19.60
2019-06-01T00:25:35.924Z,19.60
2019-06-01T00:26:36.945Z,19.60
2019-06-01T00:27:37.976Z,19.60
2019-06-01T00:28:39.179Z,19.60
2019-06-01T00:29:40.606Z,19.60
2019-06-01T00:30:41.749Z,19.60
2019-06-01T00:31:43.105Z,19.60
2019-06-01T00:32:45.194Z,19.60
2019-06-01T00:33:47.593Z,19.50
2019-06-01T00:34:49.882Z,19.50
2019-06-01T00:35:51.639Z,19.50
2019-06-01T00:36:52.680Z,19.50
2019-06-01T00:37:53.724Z,19.50
2019-06-01T00:38:54.752Z,19.50
2019-06-01T00:39:56.060Z,19.50
2019-06-01T00:40:57.145Z,19.50
2019-06-01T00:41:58.159Z,19.50
2019-06-01T00:42:59.388Z,19.50
2019-06-01T00:44:00.420Z,19.50
2019-06-01T00:45:01.819Z,19.50
2019-06-01T00:46:03.230Z,19.40
2019-06-01T00:47:04.268Z,19.50
2019-06-01T00:48:05.288Z,19.50
2019-06-01T00:49:06.305Z,19.50
2019-06-01T00:50:08.242Z,19.40
2019-06-01T00:51:09.260Z,19.50
2019-06-01T00:52:10.289Z,19.40
2019-06-01T00:53:11.517Z,19.40
2019-06-01T00:54:12.757Z,19.40
2019-06-01T00:55:13.785Z,19.40
2019-06-01T00:56:15.020Z,19.40
2019-06-01T00:57:16.087Z,19.40
2019-06-01T00:58:17.218Z,19.40
2019-06-01T00:59:18.253Z,19.40
2019-06-01T01:00:19.482Z,19.30
2019-06-01T01:01:20.610Z,19.30
2019-06-01T01:02:21.630Z,19.30
2019-06-01T01:03:22.675Z,19.30
2019-06-01T01:04:23.691Z,19.30
2019-06-01T01:05:24.922Z,19.30
2019-06-01T01:06:25.979Z,19.30
2019-06-01T01:07:27.002Z,19.30
2019-06-01T01:08:28.071Z,19.30
2019-06-01T01:09:29.175Z,19.30
2019-06-01T01:10:30.207Z,19.30
2019-06-01T01:11:31.235Z,19.30
2019-06-01T01:12:34.156Z,19.30
2019-06-01T01:13:35.195Z,19.20
2019-06-01T01:14:36.220Z,19.20
2019-06-01T01:15:37.262Z,19.20
2019-06-01T01:16:38.696Z,19.20
2019-06-01T01:17:39.717Z,19.20
2019-06-01T01:18:40.731Z,19.20
2019-06-01T01:19:41.753Z,19.20
2019-06-01T01:20:43.080Z,19.20
2019-06-01T01:21:44.308Z,19.20
2019-06-01T01:22:46.095Z,19.20
2019-06-01T01:23:48.216Z,19.20
2019-06-01T01:24:50.427Z,19.10
2019-06-01T01:25:52.599Z,19.20
2019-06-01T01:26:54.710Z,19.10
2019-06-01T01:27:57.039Z,19.10
2019-06-01T01:28:58.241Z,19.10
2019-06-01T01:29:59.260Z,19.10
2019-06-01T01:31:12.748Z,19.10
2019-06-01T01:32:03.512Z,19.10
2019-06-01T01:33:04.538Z,19.10
2019-06-01T01:34:05.594Z,19.00
2019-06-01T01:35:06.616Z,19.00
2019-06-01T01:36:07.668Z,19.00
2019-06-01T01:37:08.697Z,18.90
2019-06-01T01:38:09.719Z,18.80
2019-06-01T01:39:10.739Z,18.80
2019-06-01T01:40:11.864Z,18.70
2019-06-01T01:41:12.944Z,18.70
2019-06-01T01:42:13.965Z,18.70
2019-06-01T01:43:14.997Z,18.70
2019-06-01T01:44:16.013Z,18.60
2019-06-01T01:45:17.243Z,18.60
2019-06-01T01:46:18.266Z,18.60
2019-06-01T01:47:19.292Z,18.60
2019-06-01T01:48:20.308Z,18.70
2019-06-01T01:49:21.341Z,18.60
2019-06-01T01:50:23.557Z,18.60
2019-06-01T01:51:24.597Z,18.50
2019-06-01T01:52:25.610Z,18.50
2019-06-01T01:53:26.635Z,18.50
2019-06-01T01:54:27.674Z,18.50
2019-06-01T01:55:28.703Z,18.50
2019-06-01T01:56:29.739Z,18.50
2019-06-01T01:57:30.830Z,18.50
2019-06-01T01:58:31.880Z,18.60
2019-06-01T01:59:32.920Z,18.60
2019-06-01T02:00:46.057Z,18.60
2019-06-01T02:01:47.141Z,18.60
2019-06-01T02:02:48.359Z,18.60
2019-06-01T02:03:51.045Z,18.60
2019-06-01T02:04:52.327Z,18.70
2019-06-01T02:05:53.356Z,18.60
2019-06-01T02:06:54.400Z,18.70
2019-06-01T02:07:55.408Z,18.60
2019-06-01T02:08:57.120Z,18.60
2019-06-01T02:09:59.277Z,18.60
2019-06-01T02:11:01.691Z,18.60
2019-06-01T02:12:03.113Z,18.60
2019-06-01T02:13:04.856Z,18.50
2019-06-01T02:14:05.878Z,18.50
2019-06-01T02:15:08.504Z,18.40
2019-06-01T02:22:21.397Z,18.30
2019-06-01T02:23:22.413Z,18.30
2019-06-01T02:24:23.546Z,18.20
2019-06-01T02:25:24.901Z,18.30
2019-06-01T02:26:25.924Z,18.20
2019-06-01T02:27:26.978Z,18.30
2019-06-01T02:28:28.028Z,18.30
2019-06-01T02:29:29.046Z,18.30
2019-06-01T02:30:30.478Z,18.30
2019-06-01T02:31:41.689Z,18.30
2019-06-01T02:32:34.556Z,18.30
2019-06-01T02:33:35.585Z,18.30
2019-06-01T02:34:36.651Z,18.30
2019-06-01T02:35:37.775Z,18.50
2019-06-01T02:36:38.809Z,18.30
2019-06-01T02:37:39.870Z,18.30
2019-06-01T02:38:40.897Z,18.30
2019-06-01T02:39:41.943Z,18.40
2019-06-01T02:40:42.961Z,18.30
2019-06-01T02:41:44.100Z,18.30
2019-06-01T02:42:45.937Z,18.30
2019-06-01T02:43:46.966Z,18.30
2019-06-01T02:44:47.986Z,18.30
2019-06-01T02:45:49.018Z,18.30
2019-06-01T02:46:50.029Z,18.30
2019-06-01T02:47:51.091Z,18.30
2019-06-01T02:48:52.105Z,18.30
2019-06-01T02:49:53.426Z,18.30
2019-06-01T02:50:55.791Z,18.30
2019-06-01T02:51:57.199Z,18.30
2019-06-01T02:52:59.403Z,18.30
2019-06-01T02:54:01.739Z,18.30
2019-06-01T02:55:09.875Z,18.30
2019-06-01T02:56:10.885Z,18.20
2019-06-01T02:57:11.934Z,18.30
2019-06-01T02:58:12.980Z,18.30
2019-06-01T02:59:14.077Z,18.30
2019-06-01T03:00:18.101Z,18.30
2019-06-01T03:01:31.939Z,18.30
2019-06-01T03:02:35.377Z,18.30
2019-06-01T03:03:37.111Z,18.30
2019-06-01T03:04:38.149Z,18.30
2019-06-01T03:05:39.294Z,18.20
2019-06-01T03:06:41.973Z,18.20
2019-06-01T03:07:45.390Z,18.20
2019-06-01T03:08:48.424Z,18.20
2019-06-01T03:09:49.999Z,18.20
2019-06-01T03:10:51.920Z,18.20
2019-06-01T03:11:55.056Z,18.20
2019-06-01T03:12:58.143Z,18.20
2019-06-01T03:14:02.445Z,18.20
2019-06-01T03:15:06.477Z,18.20
2019-06-01T03:16:11.026Z,18.10
2019-06-01T03:17:13.355Z,18.10
2019-06-01T03:18:16.793Z,18.10
2019-06-01T03:19:19.021Z,18.10
2019-06-01T03:20:20.277Z,18.10
2019-06-01T03:21:24.305Z,18.10
2019-06-01T03:22:26.832Z,18.10
2019-06-01T03:23:29.669Z,18.10
2019-06-01T03:24:34.214Z,18.10
2019-06-01T03:25:38.153Z,18.00
2019-06-01T03:26:41.801Z,18.00
2019-06-01T03:27:44.776Z,18.00
2019-06-01T03:28:49.606Z,18.00
2019-06-01T03:29:55.502Z,18.10
2019-06-01T03:30:56.887Z,18.00
2019-06-01T03:32:19.440Z,18.10
2019-06-01T03:33:01.205Z,18.10
2019-06-01T03:34:04.452Z,18.10
2019-06-01T03:35:06.834Z,18.00
2019-06-01T03:36:08.996Z,18.00
2019-06-01T03:37:10.198Z,18.00
2019-06-01T03:38:11.350Z,18.00
2019-06-01T03:39:13.054Z,18.00
2019-06-01T03:40:23.419Z,18.00
2019-06-01T03:41:17.345Z,17.90
2019-06-01T03:42:18.476Z,17.90
2019-06-01T03:43:19.913Z,18.00
2019-06-01T03:44:20.949Z,17.90
2019-06-01T03:45:21.961Z,17.90
2019-06-01T03:46:22.991Z,17.90
2019-06-01T03:47:24.025Z,17.90
2019-06-01T03:48:25.058Z,17.90
2019-06-01T03:49:26.073Z,17.90
2019-06-01T03:50:27.104Z,17.90
2019-06-01T03:51:28.154Z,17.90
2019-06-01T03:52:29.181Z,17.90
2019-06-01T03:53:30.218Z,17.90
2019-06-01T03:54:31.244Z,17.90
2019-06-01T03:55:32.262Z,17.90
2019-06-01T03:56:33.288Z,17.90
2019-06-01T03:57:34.322Z,18.00
2019-06-01T03:58:35.549Z,17.90
2019-06-01T03:59:36.582Z,18.00
2019-06-01T04:00:37.616Z,17.90
2019-06-01T04:01:38.665Z,17.90
2019-06-01T04:02:39.677Z,17.90
2019-06-01T04:03:40.737Z,17.90
2019-06-01T04:04:41.862Z,17.90
2019-06-01T04:05:42.881Z,17.90
2019-06-01T04:06:43.904Z,17.90
2019-06-01T04:07:44.962Z,17.90
2019-06-01T04:08:46.057Z,17.90
2019-06-01T04:09:47.165Z,17.90
2019-06-01T04:10:48.196Z,17.90
2019-06-01T04:11:49.221Z,17.90
2019-06-01T04:12:50.245Z,17.90
2019-06-01T04:13:51.296Z,17.90
2019-06-01T04:14:52.327Z,17.90
2019-06-01T04:15:53.345Z,17.90
2019-06-01T04:16:54.625Z,17.80
2019-06-01T04:17:55.645Z,17.80
2019-06-01T04:18:56.685Z,17.80
2019-06-01T04:19:57.718Z,17.70
2019-06-01T04:20:58.745Z,17.70
2019-06-01T04:21:59.807Z,17.70
2019-06-01T04:23:01.996Z,17.70
2019-06-01T04:24:04.006Z,17.70
2019-06-01T04:25:05.979Z,17.80
2019-06-01T04:26:08.123Z,17.70
2019-06-01T04:27:10.225Z,17.70
2019-06-01T04:28:12.577Z,17.70
2019-06-01T04:29:13.933Z,17.70
2019-06-01T04:30:15.055Z,17.70
2019-06-01T04:31:16.068Z,17.70
2019-06-01T04:32:17.101Z,17.70
2019-06-01T04:33:18.385Z,17.70
2019-06-01T04:34:19.433Z,17.70
2019-06-01T04:35:20.449Z,17.70
2019-06-01T04:36:21.476Z,17.70
2019-06-01T04:37:22.511Z,17.70
2019-06-01T04:38:23.554Z,17.70
2019-06-01T04:39:24.586Z,17.70
2019-06-01T04:40:25.623Z,17.70
2019-06-01T04:41:26.624Z,17.70
2019-06-01T04:42:27.664Z,17.70
2019-06-01T04:43:28.692Z,17.70
2019-06-01T04:44:29.829Z,17.70
2019-06-01T04:45:31.761Z,17.70
2019-06-01T04:46:32.789Z,17.70
2019-06-01T04:47:33.837Z,17.70
2019-06-01T04:48:34.868Z,17.60
2019-06-01T04:49:35.919Z,17.60
2019-06-01T04:50:36.944Z,17.60
2019-06-01T04:51:37.969Z,17.70
2019-06-01T04:52:39.194Z,17.70
2019-06-01T04:53:40.338Z,17.70
2019-06-01T04:54:42.088Z,17.70
2019-06-01T04:55:43.124Z,17.80
2019-06-01T04:56:44.156Z,17.80
2019-06-01T04:57:45.193Z,17.70
2019-06-01T04:58:46.218Z,17.70
2019-06-01T04:59:47.258Z,17.70
2019-06-01T05:00:48.322Z,17.70
2019-06-01T05:01:49.435Z,17.70
2019-06-01T05:03:04.578Z,17.70
2019-06-01T05:03:53.529Z,17.70
2019-06-01T05:04:54.575Z,17.80
2019-06-01T05:05:55.593Z,17.80
2019-06-01T05:06:56.623Z,17.80
2019-06-01T05:07:57.852Z,17.80
2019-06-01T05:08:58.881Z,17.80
2019-06-01T05:09:59.901Z,17.90
2019-06-01T05:11:05.073Z,17.90
2019-06-01T05:12:05.177Z,17.90
2019-06-01T05:13:07.328Z,17.80
2019-06-01T05:14:09.599Z,17.80
2019-06-01T05:15:13.914Z,17.80
2019-06-01T05:16:16.465Z,17.80
2019-06-01T05:17:17.817Z,17.80
2019-06-01T05:18:19.728Z,17.90
2019-06-01T05:19:20.951Z,17.90
2019-06-01T05:20:22.001Z,17.90
2019-06-01T05:21:23.019Z,17.90
2019-06-01T05:22:24.664Z,18.00
2019-06-01T05:23:25.805Z,18.00
2019-06-01T05:24:26.853Z,18.00
2019-06-01T05:25:27.874Z,18.00
2019-06-01T05:26:29.192Z,18.10
2019-06-01T05:27:30.226Z,18.10
2019-06-01T05:28:31.273Z,18.10
2019-06-01T05:29:32.313Z,18.20
2019-06-01T05:30:33.353Z,18.20
2019-06-01T05:31:34.380Z,18.20
2019-06-01T05:32:35.420Z,18.30
2019-06-01T05:33:37.577Z,18.30
2019-06-01T05:34:38.982Z,18.40
2019-06-01T05:35:40.013Z,18.40
2019-06-01T05:36:41.047Z,18.50
2019-06-01T05:37:42.091Z,18.50
2019-06-01T05:38:43.109Z,18.50
2019-06-01T05:39:44.172Z,18.60
2019-06-01T05:40:45.265Z,18.60
2019-06-01T05:41:46.293Z,18.60
2019-06-01T05:42:47.325Z,18.70
2019-06-01T05:43:48.361Z,18.70
2019-06-01T05:44:49.388Z,18.80
2019-06-01T05:45:50.416Z,18.90
2019-06-01T05:46:51.659Z,19.00
2019-06-01T05:47:52.888Z,19.00
2019-06-01T05:48:53.922Z,19.10
2019-06-01T05:49:54.952Z,19.10
2019-06-01T05:50:55.987Z,19.20
2019-06-01T05:51:57.012Z,19.30
2019-06-01T05:52:58.055Z,19.30
2019-06-01T05:53:59.079Z,19.40
2019-06-01T05:55:00.422Z,19.50
2019-06-01T05:56:01.492Z,19.60
2019-06-01T05:57:02.682Z,19.70
2019-06-01T05:58:03.718Z,19.80
2019-06-01T05:59:04.733Z,20.00
2019-06-01T06:00:07.165Z,20.10
2019-06-01T06:01:08.185Z,20.20
2019-06-01T06:02:09.240Z,20.30
2019-06-01T06:03:12.824Z,20.40
2019-06-01T06:04:13.449Z,20.50
2019-06-01T06:05:15.058Z,20.50
2019-06-01T06:06:16.097Z,20.50
2019-06-01T06:07:17.122Z,20.60
2019-06-01T06:08:18.143Z,20.60
2019-06-01T06:09:19.213Z,20.70
2019-06-01T06:10:20.554Z,20.80
2019-06-01T06:11:21.588Z,20.90
2019-06-01T06:12:22.621Z,21.00
2019-06-01T06:13:23.643Z,21.10
2019-06-01T06:14:24.682Z,21.20
2019-06-01T06:15:25.741Z,21.30
2019-06-01T06:16:26.895Z,21.30
2019-06-01T06:17:27.933Z,21.20
2019-06-01T06:18:28.957Z,21.20
2019-06-01T06:19:30.015Z,21.20
2019-06-01T06:20:31.026Z,21.20
2019-06-01T06:21:32.058Z,21.30
2019-06-01T06:22:33.080Z,21.40
2019-06-01T06:23:34.105Z,21.40
2019-06-01T06:24:35.123Z,21.50
2019-06-01T06:25:38.395Z,21.50
2019-06-01T06:26:39.184Z,21.50
2019-06-01T06:27:40.328Z,21.50
2019-06-01T06:28:41.381Z,21.50
2019-06-01T06:29:42.413Z,21.50
2019-06-01T06:30:43.444Z,21.60
2019-06-01T06:31:44.471Z,21.70
2019-06-01T06:32:45.504Z,21.80
2019-06-01T06:33:55.863Z,21.80
2019-06-01T06:34:49.479Z,21.90
2019-06-01T06:35:50.707Z,21.90
2019-06-01T06:36:51.739Z,22.00
2019-06-01T06:37:52.777Z,22.00
2019-06-01T06:38:53.806Z,22.10
2019-06-01T06:39:54.926Z,22.10
2019-06-01T06:40:56.066Z,22.10
2019-06-01T06:41:57.277Z,22.10
2019-06-01T06:42:58.375Z,22.10
2019-06-01T06:43:59.403Z,22.10
2019-06-01T06:45:02.900Z,22.10
2019-06-01T06:46:03.379Z,22.10
2019-06-01T06:47:04.817Z,22.00
2019-06-01T06:48:05.937Z,22.00
2019-06-01T06:49:09.819Z,22.00
2019-06-01T06:50:16.456Z,22.00
2019-06-01T06:51:19.326Z,22.00
2019-06-01T06:52:21.507Z,22.00
2019-06-01T06:53:32.403Z,22.00
2019-06-01T06:54:26.715Z,22.00
2019-06-01T06:55:27.863Z,22.00
2019-06-01T06:56:28.977Z,22.00
2019-06-01T06:57:30.105Z,22.00
2019-06-01T06:58:31.230Z,22.00
2019-06-01T06:59:32.349Z,22.00
2019-06-01T07:00:33.492Z,22.00
2019-06-01T07:01:34.518Z,22.10
2019-06-01T07:02:35.534Z,22.10
2019-06-01T07:03:36.877Z,22.10
2019-06-01T07:04:37.913Z,22.10
2019-06-01T07:05:38.952Z,22.10
2019-06-01T07:06:40.196Z,22.10
2019-06-01T07:07:41.301Z,22.10
2019-06-01T07:08:42.320Z,22.10
2019-06-01T07:09:43.365Z,22.10
2019-06-01T07:10:44.416Z,22.10
2019-06-01T07:11:45.428Z,22.10
2019-06-01T07:12:46.569Z,22.20
2019-06-01T07:13:47.587Z,22.20
2019-06-01T07:14:48.629Z,22.10
2019-06-01T07:15:49.746Z,22.10
2019-06-01T07:16:50.789Z,22.10
2019-06-01T07:17:51.812Z,22.10
2019-06-01T07:18:52.829Z,22.20
2019-06-01T07:19:53.863Z,22.20
2019-06-01T07:20:54.925Z,22.20
2019-06-01T07:21:55.956Z,22.20
2019-06-01T07:22:57.085Z,22.20
2019-06-01T07:23:58.107Z,22.20
2019-06-01T07:24:59.137Z,22.20
2019-06-01T07:26:00.170Z,22.30
2019-06-01T07:27:01.290Z,22.30
2019-06-01T07:28:02.572Z,22.30
2019-06-01T07:29:03.660Z,22.40
2019-06-01T07:30:05.389Z,22.40
2019-06-01T07:31:06.430Z,22.40
2019-06-01T07:32:07.461Z,22.50
2019-06-01T07:33:08.723Z,22.50
2019-06-01T07:34:09.925Z,22.50
2019-06-01T07:35:11.656Z,22.50
2019-06-01T07:36:12.703Z,22.60
2019-06-01T07:37:13.974Z,22.60
2019-06-01T07:38:15.023Z,22.60
2019-06-01T07:39:16.063Z,22.70
2019-06-01T07:40:17.382Z,22.70
2019-06-01T07:41:18.419Z,22.80
2019-06-01T07:42:23.028Z,22.80
2019-06-01T07:43:22.632Z,22.70
2019-06-01T07:44:24.990Z,22.70
2019-06-01T07:45:26.952Z,22.70
2019-06-01T07:46:29.011Z,22.80
2019-06-01T07:47:30.336Z,22.80
2019-06-01T07:48:31.372Z,22.80
2019-06-01T07:49:32.424Z,22.90
2019-06-01T07:50:33.446Z,23.00
2019-06-01T07:51:34.482Z,23.00
2019-06-01T07:52:35.526Z,23.10
2019-06-01T07:53:36.651Z,23.20
2019-06-01T07:54:37.709Z,23.20
2019-06-01T07:55:38.742Z,23.30
2019-06-01T07:56:39.769Z,23.40
2019-06-01T07:57:43.294Z,23.40
2019-06-01T07:58:43.741Z,23.40
2019-06-01T07:59:44.773Z,23.50
2019-06-01T08:00:45.801Z,23.50
2019-06-01T08:01:46.850Z,23.60
2019-06-01T08:02:48.089Z,23.60
2019-06-01T08:03:49.105Z,23.70
2019-06-01T08:04:54.043Z,23.80
2019-06-01T08:05:53.071Z,23.80
2019-06-01T08:06:54.138Z,23.80
2019-06-01T08:07:55.258Z,23.90
2019-06-01T08:08:56.317Z,23.90
2019-06-01T08:09:57.456Z,23.90
2019-06-01T08:10:58.573Z,23.90
2019-06-01T08:11:59.614Z,24.00
2019-06-01T08:13:00.645Z,24.00
2019-06-01T08:14:02.489Z,24.00
2019-06-01T08:15:06.958Z,24.00
2019-06-01T08:16:07.990Z,24.10
2019-06-01T08:17:09.034Z,24.10
2019-06-01T08:18:10.077Z,24.20
2019-06-01T08:19:11.080Z,24.20
2019-06-01T08:20:12.309Z,24.20
2019-06-01T08:21:13.376Z,24.30
2019-06-01T08:22:14.493Z,24.30
2019-06-01T08:23:15.541Z,24.30
2019-06-01T08:24:16.668Z,24.30
2019-06-01T08:25:17.715Z,24.30
2019-06-01T08:26:20.063Z,24.40
2019-06-01T08:27:22.401Z,24.40
2019-06-01T08:28:24.386Z,24.40
2019-06-01T08:29:26.651Z,24.50
2019-06-01T08:30:28.632Z,24.50
2019-06-01T08:31:31.841Z,24.50
2019-06-01T08:32:33.031Z,24.50
2019-06-01T08:33:35.039Z,24.60
2019-06-01T08:34:36.157Z,24.60
2019-06-01T08:35:37.172Z,24.50
2019-06-01T08:36:38.217Z,24.60
2019-06-01T08:37:39.249Z,24.60
2019-06-01T08:38:40.274Z,24.60
2019-06-01T08:39:41.293Z,24.60
2019-06-01T08:40:42.409Z,24.70
2019-06-01T08:41:43.785Z,24.70
2019-06-01T08:42:44.891Z,24.80
2019-06-01T08:43:45.997Z,24.80
2019-06-01T08:44:47.026Z,24.80
2019-06-01T08:45:48.155Z,24.80
2019-06-01T08:46:49.191Z,24.90
2019-06-01T08:47:50.221Z,24.90
2019-06-01T08:48:51.260Z,24.90
2019-06-01T08:49:52.288Z,24.90
2019-06-01T08:50:53.321Z,25.00
2019-06-01T08:51:54.346Z,24.90
2019-06-01T08:52:55.376Z,24.90
2019-06-01T08:53:56.401Z,24.90
2019-06-01T08:54:57.441Z,24.90
2019-06-01T08:55:58.476Z,24.90
2019-06-01T08:56:59.504Z,24.80
2019-06-01T08:58:00.532Z,24.80
2019-06-01T08:59:01.665Z,24.80
2019-06-01T09:00:07.824Z,24.70
2019-06-01T09:01:08.855Z,24.70
2019-06-01T09:02:09.893Z,24.70
2019-06-01T09:03:10.919Z,24.80
2019-06-01T09:04:11.959Z,24.80
2019-06-01T09:05:23.991Z,24.70
2019-06-01T09:06:16.131Z,24.70
2019-06-01T09:07:17.450Z,24.80
2019-06-01T09:08:18.523Z,24.80
2019-06-01T09:09:19.625Z,24.80
2019-06-01T09:10:20.656Z,24.90
2019-06-01T09:11:21.686Z,24.90
2019-06-01T09:12:22.722Z,25.00
2019-06-01T09:13:25.017Z,25.00
2019-06-01T09:14:27.216Z,25.10
2019-06-01T09:15:29.686Z,25.10
2019-06-01T09:16:31.618Z,25.10
2019-06-01T09:17:33.469Z,25.20
2019-06-01T09:18:35.836Z,25.20
2019-06-01T09:19:36.995Z,25.20
2019-06-01T09:20:39.053Z,25.20
2019-06-01T09:21:40.260Z,25.20
2019-06-01T09:22:41.293Z,25.20
2019-06-01T09:23:42.314Z,25.20
2019-06-01T09:24:43.344Z,25.20
2019-06-01T09:25:44.377Z,25.30
2019-06-01T09:26:45.386Z,25.40
2019-06-01T09:27:46.435Z,25.40
2019-06-01T09:28:47.449Z,25.40
2019-06-01T09:29:48.478Z,25.40
2019-06-01T09:30:49.507Z,25.40
2019-06-01T09:31:50.541Z,25.60
2019-06-01T09:32:51.671Z,25.60
2019-06-01T09:33:52.706Z,25.60
2019-06-01T09:34:53.762Z,25.60
2019-06-01T09:35:56.341Z,25.60
2019-06-01T09:36:57.719Z,25.60
2019-06-01T09:37:58.777Z,25.60
2019-06-01T09:39:00.037Z,25.70
2019-06-01T09:40:01.568Z,25.70
2019-06-01T09:41:02.646Z,25.70
2019-06-01T09:42:03.786Z,25.70
2019-06-01T09:43:04.894Z,25.80
2019-06-01T09:44:05.913Z,25.80
2019-06-01T09:45:07.930Z,25.80
2019-06-01T09:46:09.163Z,25.80
2019-06-01T09:47:10.180Z,25.80
2019-06-01T09:48:11.426Z,25.80
2019-06-01T09:49:12.516Z,25.80
2019-06-01T09:50:14.106Z,25.90
2019-06-01T09:51:15.181Z,25.90
2019-06-01T09:52:16.214Z,25.80
2019-06-01T09:53:17.237Z,25.90
2019-06-01T09:54:18.293Z,25.90
2019-06-01T09:55:19.418Z,25.90
2019-06-01T09:56:20.528Z,26.00
2019-06-01T09:57:21.559Z,26.10
2019-06-01T09:58:22.688Z,26.20
2019-06-01T09:59:23.708Z,26.30
2019-06-01T10:00:25.009Z,26.40
2019-06-01T10:01:26.078Z,26.40
2019-06-01T10:02:28.053Z,26.50
2019-06-01T10:03:30.240Z,26.60
2019-06-01T10:04:32.272Z,26.70
2019-06-01T10:05:34.808Z,26.70
2019-06-01T10:06:36.703Z,26.70
2019-06-01T10:07:39.361Z,26.70
2019-06-01T10:08:40.642Z,26.60
2019-06-01T10:09:42.165Z,26.60
2019-06-01T10:10:43.409Z,26.60
2019-06-01T10:11:44.669Z,26.60
2019-06-01T10:12:46.084Z,26.60
2019-06-01T10:13:47.236Z,26.70
2019-06-01T10:14:48.262Z,26.70
2019-06-01T10:15:49.498Z,26.80
2019-06-01T10:16:50.541Z,26.80
2019-06-01T10:17:51.648Z,26.80
2019-06-01T10:18:52.747Z,26.90
2019-06-01T10:19:53.759Z,27.00
2019-06-01T10:20:54.793Z,27.00
2019-06-01T10:21:55.810Z,27.00
2019-06-01T10:22:56.938Z,27.10
2019-06-01T10:23:57.977Z,27.10
2019-06-01T10:24:59.000Z,27.10
2019-06-01T10:26:00.035Z,27.10
2019-06-01T10:27:01.405Z,27.20
2019-06-01T10:28:02.822Z,27.20
2019-06-01T10:29:03.965Z,27.30
2019-06-01T10:30:08.363Z,27.30
2019-06-01T10:31:09.408Z,27.20
2019-06-01T10:32:10.741Z,27.20
2019-06-01T10:33:11.832Z,27.10
2019-06-01T10:34:12.874Z,27.10
2019-06-01T10:35:14.200Z,27.00
2019-06-01T10:36:20.771Z,26.90
2019-06-01T10:37:18.275Z,26.90
2019-06-01T10:38:19.320Z,26.90
2019-06-01T10:39:20.561Z,26.80
2019-06-01T10:40:21.592Z,26.80
2019-06-01T10:41:22.610Z,26.80
2019-06-01T10:42:23.661Z,26.90
2019-06-01T10:43:24.701Z,26.90
2019-06-01T10:44:25.706Z,27.00
2019-06-01T10:45:26.817Z,27.10
2019-06-01T10:46:27.970Z,27.10
2019-06-01T10:47:29.063Z,27.20
2019-06-01T10:48:30.113Z,27.30
2019-06-01T10:49:31.820Z,27.30
2019-06-01T10:50:34.791Z,27.30
2019-06-01T10:51:36.253Z,27.20
2019-06-01T10:52:38.344Z,27.20
2019-06-01T10:53:41.496Z,27.10
2019-06-01T10:54:43.033Z,27.10
2019-06-01T10:55:44.775Z,27.10
2019-06-01T10:56:45.997Z,27.20
2019-06-01T10:57:47.032Z,27.20
2019-06-01T10:58:59.737Z,27.20
2019-06-01T10:59:51.476Z,27.20
2019-06-01T11:00:52.509Z,27.20
2019-06-01T11:01:53.525Z,27.30
2019-06-01T11:02:54.538Z,27.30
2019-06-01T11:03:55.582Z,27.20
2019-06-01T11:04:56.612Z,27.20
2019-06-01T11:05:57.645Z,27.20
2019-06-01T11:06:58.671Z,27.20
2019-06-01T11:07:59.724Z,27.30
2019-06-01T11:09:00.776Z,27.30
2019-06-01T11:10:05.188Z,27.40
2019-06-01T11:11:06.204Z,27.50
2019-06-01T11:12:07.530Z,27.60
2019-06-01T11:13:08.551Z,27.70
2019-06-01T11:14:09.896Z,27.70
2019-06-01T11:15:11.521Z,27.80
2019-06-01T11:16:12.551Z,27.90
2019-06-01T11:17:13.685Z,27.90
2019-06-01T11:18:14.745Z,28.00
2019-06-01T11:19:15.850Z,28.00
2019-06-01T11:20:18.104Z,28.00
2019-06-01T11:21:19.116Z,28.00
2019-06-01T11:22:20.148Z,28.10
2019-06-01T11:23:21.193Z,28.20
2019-06-01T11:24:22.236Z,28.20
2019-06-01T11:25:23.266Z,28.30
2019-06-01T11:26:24.319Z,28.20
2019-06-01T11:27:25.341Z,28.30
2019-06-01T11:28:26.376Z,28.30
2019-06-01T11:29:27.583Z,28.20
2019-06-01T11:30:28.634Z,28.20
2019-06-01T11:31:29.665Z,28.20
2019-06-01T11:32:30.700Z,28.10
2019-06-01T11:33:31.822Z,28.10
2019-06-01T11:34:33.921Z,28.10
2019-06-01T11:35:35.304Z,28.10
2019-06-01T11:36:54.163Z,28.10
2019-06-01T11:37:40.457Z,28.10
2019-06-01T11:38:42.531Z,28.20
2019-06-01T11:39:44.810Z,28.30
2019-06-01T11:40:45.923Z,28.30
2019-06-01T11:41:46.983Z,28.30
2019-06-01T11:42:48.062Z,28.20
2019-06-01T11:43:49.197Z,28.30
2019-06-01T11:44:50.263Z,28.30
2019-06-01T11:45:51.362Z,28.30
2019-06-01T11:46:52.820Z,28.40
2019-06-01T11:47:53.932Z,28.40
2019-06-01T11:48:55.001Z,28.50
2019-06-01T11:49:56.145Z,28.60
2019-06-01T11:50:57.222Z,28.70
2019-06-01T11:51:58.251Z,28.70
2019-06-01T11:52:59.278Z,28.90
2019-06-01T11:54:00.302Z,28.90
2019-06-01T11:55:01.641Z,29.00
2019-06-01T11:56:04.202Z,29.00
2019-06-01T11:57:05.226Z,29.10
2019-06-01T11:58:06.276Z,29.20
2019-06-01T11:59:07.416Z,29.20
2019-06-01T12:00:11.023Z,29.30
2019-06-01T12:01:12.154Z,29.20
2019-06-01T12:02:13.186Z,29.40
2019-06-01T12:03:14.349Z,29.40
2019-06-01T12:04:15.368Z,29.50
2019-06-01T12:05:16.539Z,29.50
2019-06-01T12:06:17.577Z,29.50
2019-06-01T12:07:18.735Z,29.50
2019-06-01T12:08:19.836Z,29.50
2019-06-01T12:09:20.881Z,29.50
2019-06-01T12:10:22.137Z,29.60
2019-06-01T12:11:23.162Z,29.70
2019-06-01T12:12:24.195Z,29.70
2019-06-01T12:13:25.334Z,29.80
2019-06-01T12:14:26.475Z,29.70
2019-06-01T12:15:27.604Z,29.70
2019-06-01T12:16:28.669Z,29.60
2019-06-01T12:17:29.694Z,29.60
2019-06-01T12:18:30.723Z,29.60
2019-06-01T12:19:31.757Z,29.60
2019-06-01T12:20:32.781Z,29.60
2019-06-01T12:21:33.811Z,29.50
2019-06-01T12:22:34.847Z,29.50
2019-06-01T12:23:37.137Z,29.50
2019-06-01T12:24:38.836Z,29.60
2019-06-01T12:25:40.172Z,29.70
2019-06-01T12:26:41.377Z,29.80
2019-06-01T12:27:43.564Z,29.90
2019-06-01T12:28:45.842Z,30.00
2019-06-01T12:29:48.276Z,30.00
2019-06-01T12:30:49.876Z,30.10
2019-06-01T12:31:50.933Z,30.20
2019-06-01T12:32:51.966Z,30.30
2019-06-01T12:33:52.994Z,30.30
2019-06-01T12:34:54.017Z,30.30
2019-06-01T12:35:55.059Z,30.40
2019-06-01T12:36:56.089Z,30.50
2019-06-01T12:38:05.981Z,30.60
2019-06-01T12:39:00.053Z,30.60
2019-06-01T12:40:01.285Z,30.80
2019-06-01T12:41:02.397Z,30.80
2019-06-01T12:42:03.441Z,30.80
2019-06-01T12:43:04.510Z,30.90
2019-06-01T12:44:11.884Z,31.00
2019-06-01T12:45:15.822Z,31.00
2019-06-01T12:46:16.929Z,31.10
2019-06-01T12:47:17.996Z,31.10
2019-06-01T12:48:19.276Z,31.10
2019-06-01T12:49:20.308Z,31.10
2019-06-01T12:50:21.533Z,31.20
2019-06-01T12:51:22.602Z,31.30
2019-06-01T12:52:23.701Z,31.30
2019-06-01T12:53:25.505Z,31.40
2019-06-01T12:54:26.737Z,31.40
2019-06-01T12:55:27.768Z,31.60
2019-06-01T12:56:28.791Z,31.60
2019-06-01T12:57:29.832Z,31.70
2019-06-01T12:58:30.860Z,31.70
2019-06-01T12:59:31.893Z,31.70
2019-06-01T13:00:33.141Z,31.70
2019-06-01T13:01:34.263Z,31.70
2019-06-01T13:02:35.401Z,31.70
2019-06-01T13:03:36.425Z,31.70
2019-06-01T13:04:37.460Z,31.70
2019-06-01T13:05:38.803Z,31.70
2019-06-01T13:06:40.702Z,31.80
2019-06-01T13:07:53.033Z,31.70
2019-06-01T13:08:44.868Z,31.80
2019-06-01T13:09:46.198Z,31.80
2019-06-01T13:10:47.368Z,31.80
2019-06-01T13:11:49.488Z,31.90
2019-06-01T13:12:52.258Z,32.00
2019-06-01T13:13:53.552Z,32.10
2019-06-01T13:14:54.582Z,32.10
2019-06-01T13:15:55.607Z,32.20
2019-06-01T13:17:06.786Z,32.20